Time;durP1;ratioP1;P1;durP2;ratioP2;P2;SDS_P1;SDS_P2;PMS_P1;PMS_P2;Temp;Humidity;BMP_temperature;BMP_pressure;BME280_temperature;BME280_humidity;BME280_pressure;Samples;Min_cycle;Max_cycle;Signal;HPM_P1;HPM_P2
2022/05/05 00:01:41;;;;;;;20.48;11.77;;;;;;;10.98;73.52;95608.50;5026590;28;20124;-82
2022/05/05 00:04:07;;;;;;;19.55;12.63;;;;;;;11.09;74.54;95612.75;5027814;28;20092;-82
2022/05/05 00:06:32;;;;;;;20.15;12.13;;;;;;;10.29;74.75;95515.34;5027542;28;20045;-82
2022/05/05 00:08:58;;;;;;;16.58;11.65;;;;;;;10.82;73.33;95617.53;5026150;28;20037;-82
2022/05/05 00:14:24;;;;;;;18.38;11.45;;;;;;;10.70;74.76;95615.09;5027766;28;20063;-83
2022/05/05 00:16:53;;;;;;;24.15;11.68;;;;;;;10.56;75.17;95613.22;5025889;28;20030;-82
2022/05/05 00:19:19;;;;;;;18.48;11.10;;;;;;;10.21;74.86;95537.88;5027283;28;20041;-82
2022/05/05 00:21:45;;;;;;;13.65;10.38;;;;;;;9.56;75.94;95433.28;5027450;28;20049;-82
2022/05/05 00:24:11;;;;;;;16.83;11.55;;;;;;;10.34;75.24;95584.28;5026829;28;20037;-83
2022/05/05 00:26:36;;;;;;;18.23;11.70;;;;;;;9.78;74.81;95517.81;5027673;28;20090;-83
2022/05/05 00:29:02;;;;;;;18.75;10.57;;;;;;;9.85;75.17;95512.28;5027171;28;20443;-83
2022/05/05 00:31:28;;;;;;;21.42;11.10;;;;;;;9.94;75.00;95485.03;5009639;28;20048;-82
2022/05/05 00:33:53;;;;;;;23.90;12.43;;;;;;;9.96;74.89;95485.56;5027549;28;20030;-82
2022/05/05 00:36:19;;;;;;;16.42;10.15;;;;;;;9.51;74.81;95482.78;5027278;28;20032;-82
2022/05/05 00:38:44;;;;;;;16.77;10.38;;;;;;;9.21;75.68;95423.38;5028374;28;20060;-83
2022/05/05 00:41:09;;;;;;;19.13;10.98;;;;;;;10.63;75.50;95609.25;5027255;28;20108;-82
2022/05/05 00:43:35;;;;;;;18.17;11.02;;;;;;;10.62;75.20;95604.22;5027077;28;20099;-82
2022/05/05 00:46:02;;;;;;;17.80;11.57;;;;;;;10.54;75.81;95591.47;5009313;28;20063;-82
2022/05/05 00:48:28;;;;;;;16.42;10.65;;;;;;;10.21;74.74;95547.66;5027550;28;20060;-82
2022/05/05 00:50:55;;;;;;;15.40;11.02;;;;;;;10.68;75.22;95611.13;5027120;28;20057;-80
2022/05/05 00:53:21;;;;;;;15.18;11.07;;;;;;;10.69;75.22;95605.53;4992516;28;20041;-80
2022/05/05 00:55:50;;;;;;;18.67;10.93;;;;;;;9.62;75.12;95447.31;5027230;28;20125;-82
2022/05/05 00:58:16;;;;;;;16.67;11.77;;;;;;;9.69;75.38;95440.72;5026649;28;20514;-82
2022/05/05 01:00:42;;;;;;;19.83;10.98;;;;;;;10.36;74.92;95572.34;5027167;28;20057;-82
2022/05/05 01:03:11;;;;;;;15.73;11.27;;;;;;;10.10;74.36;95516.84;5027372;28;20122;-82
2022/05/05 01:05:38;;;;;;;17.38;10.68;;;;;;;10.49;74.53;95610.81;5027129;28;20487;-83
2022/05/05 01:08:05;;;;;;;14.05;9.70;;;;;;;9.50;74.67;95434.31;5009821;28;20033;-83
2022/05/05 01:10:31;;;;;;;16.27;11.43;;;;;;;10.70;75.35;95607.16;5027065;28;20401;-83
2022/05/05 01:12:56;;;;;;;18.17;11.13;;;;;;;9.63;74.95;95435.66;5027111;28;20057;-83
2022/05/05 01:15:22;;;;;;;15.68;10.75;;;;;;;10.64;75.59;95636.56;5027116;28;20502;-82
2022/05/05 01:17:48;;;;;;;22.17;11.07;;;;;;;9.67;74.41;95489.72;5009118;28;20136;-82
2022/05/05 01:20:19;;;;;;;17.95;11.52;;;;;;;9.75;74.54;95494.50;5027028;28;20111;-82
2022/05/05 01:22:45;;;;;;;23.25;11.95;;;;;;;10.57;75.02;95612.97;5006673;28;20121;-82
2022/05/05 01:28:10;;;;;;;22.20;11.35;;;;;;;9.82;73.99;95497.72;5026608;28;20184;-82
2022/05/05 01:30:38;;;;;;;15.32;9.65;;;;;;;10.35;74.25;95601.78;5026514;28;20057;-82
2022/05/05 01:33:21;;;;;;;16.15;10.98;;;;;;;10.06;73.90;95565.09;5009010;28;20382;-82
2022/05/05 01:35:48;;;;;;;17.15;10.57;;;;;;;10.31;74.46;95613.94;5027148;28;20065;-82
2022/05/05 01:38:16;;;;;;;13.02;10.52;;;;;;;10.43;75.03;95617.97;5030293;28;20048;-82
2022/05/05 01:40:46;;;;;;;21.48;11.75;;;;;;;9.36;75.44;95453.59;5030493;28;20036;-83
2022/05/05 01:43:12;;;;;;;15.85;10.88;;;;;;;10.38;75.12;95617.13;5012319;28;20052;-82
2022/05/05 01:45:38;;;;;;;18.73;12.20;;;;;;;9.44;74.81;95471.63;5030182;28;20049;-82
2022/05/05 01:48:04;;;;;;;19.00;11.45;;;;;;;10.05;74.99;95568.00;5011846;28;20392;-82
2022/05/05 01:50:33;;;;;;;18.60;11.48;;;;;;;9.86;74.53;95527.91;5012120;28;20496;-82
2022/05/05 01:52:59;;;;;;;18.02;11.95;;;;;;;10.39;75.43;95627.50;5012006;28;20048;-82
2022/05/05 01:55:26;;;;;;;18.52;11.63;;;;;;;9.67;74.47;95521.50;5029697;28;20476;-82
2022/05/05 01:57:51;;;;;;;14.52;10.07;;;;;;;9.17;74.45;95493.72;5029949;28;20089;-82
2022/05/05 02:00:18;;;;;;;18.17;10.82;;;;;;;10.07;75.47;95613.56;5030023;28;20464;-82
2022/05/05 02:02:44;;;;;;;17.52;10.40;;;;;;;9.34;75.13;95485.59;5029584;28;20037;-82
2022/05/05 02:05:10;;;;;;;18.73;11.25;;;;;;;10.09;75.17;95574.34;5011589;28;20052;-82
2022/05/05 02:07:36;;;;;;;19.63;10.85;;;;;;;9.82;75.34;95541.94;5012148;28;20061;-82
2022/05/05 02:10:04;;;;;;;25.42;11.35;;;;;;;9.93;75.77;95544.38;5011568;28;20479;-82
2022/05/05 02:12:30;;;;;;;19.15;11.10;;;;;;;9.60;74.36;95495.25;5029305;28;20112;-82
2022/05/05 02:14:55;;;;;;;27.45;11.90;;;;;;;10.30;74.38;95604.41;5029507;28;20597;-82
2022/05/05 02:17:21;;;;;;;17.08;10.52;;;;;;;10.44;74.51;95634.69;5009902;28;20057;-82
2022/05/05 02:19:47;;;;;;;19.35;11.02;;;;;;;10.44;74.86;95634.69;5029083;28;20026;-82
2022/05/05 02:22:14;;;;;;;26.85;14.57;;;;;;;9.83;75.26;95552.28;5029049;28;20480;-82
2022/05/05 02:24:39;;;;;;;36.20;16.08;;;;;;;9.69;75.03;95530.75;5029131;28;20037;-82
2022/05/05 02:27:05;;;;;;;23.58;12.63;;;;;;;10.29;75.09;95651.34;5029155;28;20060;-82
2022/05/05 02:29:31;;;;;;;22.58;11.70;;;;;;;9.42;74.78;95505.50;5028634;28;20148;-82
2022/05/05 02:31:56;;;;;;;19.92;12.18;;;;;;;10.14;75.57;95623.94;5010907;28;20033;-82
2022/05/05 02:34:22;;;;;;;22.92;13.38;;;;;;;9.63;74.80;95545.03;5011563;28;20037;-82
2022/05/05 02:39:31;;;;;;;78.80;15.75;;;;;;;10.30;74.96;95657.41;5028700;28;20041;-81
2022/05/05 02:41:56;;;;;;;106.93;17.05;;;;;;;9.75;75.03;95568.69;5028915;28;20459;-82
2022/05/05 02:44:22;;;;;;;36.03;14.35;;;;;;;9.31;75.36;95498.56;5011036;28;20037;-82
2022/05/05 02:46:47;;;;;;;32.35;13.52;;;;;;;9.39;75.13;95509.44;5028805;28;20103;-83
2022/05/05 02:49:14;;;;;;;50.28;13.77;;;;;;;9.87;75.06;95581.69;5028371;28;20308;-82
2022/05/05 02:51:39;;;;;;;39.10;14.00;;;;;;;9.76;75.14;95550.94;5010835;28;20034;-82
2022/05/05 02:56:49;;;;;;;41.67;15.27;;;;;;;10.40;74.57;95668.06;5028966;28;20040;-82
2022/05/05 02:59:15;;;;;;;34.65;14.05;;;;;;;9.28;74.35;95503.31;5010721;28;20033;-82
2022/05/05 03:01:41;;;;;;;27.23;13.43;;;;;;;10.13;74.08;95646.19;5010686;28;20041;-82
2022/05/05 03:04:06;;;;;;;25.52;13.57;;;;;;;9.81;74.22;95601.28;5028360;28;20041;-82
2022/05/05 03:06:32;;;;;;;24.20;12.60;;;;;;;9.84;73.72;95617.44;5029058;28;20335;-82
2022/05/05 03:08:57;;;;;;;23.17;13.57;;;;;;;9.81;74.38;95617.16;5028169;28;20045;-82
2022/05/05 03:11:23;;;;;;;20.25;11.68;;;;;;;9.52;73.86;95563.78;5028792;28;20370;-82
2022/05/05 03:13:48;;;;;;;16.85;11.68;;;;;;;10.17;73.28;95674.59;5010506;28;20037;-83
2022/05/05 03:16:14;;;;;;;18.63;11.55;;;;;;;10.03;73.29;95636.34;5028625;28;20060;-82
2022/05/05 03:18:40;;;;;;;18.73;11.55;;;;;;;10.12;73.19;95650.72;5010911;28;20038;-82
2022/05/05 03:21:07;;;;;;;22.60;12.38;;;;;;;10.02;73.26;95632.09;5028348;28;20026;-82
2022/05/05 03:23:32;;;;;;;23.92;12.93;;;;;;;10.26;73.04;95696.91;5028409;28;20035;-82
2022/05/05 03:25:58;;;;;;;18.35;11.95;;;;;;;9.78;73.36;95618.47;5028329;28;20033;-82
2022/05/05 03:28:23;;;;;;;19.98;12.10;;;;;;;9.65;73.32;95606.50;5028065;28;20543;-82
2022/05/05 03:30:49;;;;;;;35.97;13.75;;;;;;;9.59;73.75;95604.09;5027768;28;20087;-82
2022/05/05 03:33:15;;;;;;;62.67;15.13;;;;;;;9.20;75.20;95577.91;5010232;28;20258;-82
2022/05/05 03:35:40;;;;;;;30.90;14.30;;;;;;;9.87;74.99;95639.97;5028025;28;20045;-82
2022/05/05 03:38:06;;;;;;;24.58;14.48;;;;;;;9.62;75.28;95603.56;5028242;28;20505;-82
2022/05/05 03:40:31;;;;;;;36.63;14.77;;;;;;;9.57;75.35;95612.28;5010681;28;20056;-82
2022/05/05 03:42:57;;;;;;;31.80;15.23;;;;;;;10.16;74.04;95696.81;5028699;28;20041;-81
2022/05/05 03:45:23;;;;;;;29.38;14.95;;;;;;;9.40;75.16;95566.63;5028816;28;20041;-82
2022/05/05 03:47:49;;;;;;;31.98;15.13;;;;;;;9.78;74.60;95615.03;5028897;28;20151;-82
2022/05/05 03:50:15;;;;;;;25.55;14.55;;;;;;;9.96;75.20;95641.88;5028628;28;20045;-82
2022/05/05 03:52:40;;;;;;;31.65;16.02;;;;;;;9.83;75.35;95637.06;5028092;28;20029;-82
2022/05/05 03:55:06;;;;;;;33.42;16.42;;;;;;;9.58;76.03;95605.94;5027598;28;20427;-82
2022/05/05 03:57:33;;;;;;;35.63;15.93;;;;;;;7.27;75.40;95261.13;5027639;28;20039;-82
2022/05/05 03:59:59;;;;;;;26.75;16.35;;;;;;;9.44;75.12;95575.66;5008830;28;20033;-82
2022/05/05 04:02:25;;;;;;;31.65;17.40;;;;;;;9.90;75.65;95664.13;5028508;28;20033;-82
2022/05/05 04:04:50;;;;;;;33.08;16.52;;;;;;;9.66;75.84;95623.19;5010140;28;20033;-82
2022/05/05 04:07:16;;;;;;;31.20;16.30;;;;;;;10.21;75.02;95685.50;5010141;28;20322;-82
2022/05/05 04:09:41;;;;;;;45.22;21.08;;;;;;;10.22;75.90;95676.50;5026081;28;20451;-82
2022/05/05 04:12:07;;;;;;;37.08;18.77;;;;;;;9.74;75.79;95641.25;5000109;28;20033;-82
2022/05/05 04:14:35;;;;;;;45.97;21.77;;;;;;;9.38;76.95;95595.22;5027702;28;20040;-82
2022/05/05 04:17:01;;;;;;;88.75;23.15;;;;;;;10.07;76.21;95661.25;5027842;28;20044;-82
2022/05/05 04:19:27;;;;;;;67.18;22.92;;;;;;;10.13;76.34;95700.00;4990632;28;20038;-82
2022/05/05 04:21:53;;;;;;;44.30;19.23;;;;;;;9.67;74.92;95624.78;5006554;28;20069;-82
2022/05/05 04:24:19;;;;;;;47.97;19.13;;;;;;;10.02;74.83;95687.75;5007285;28;20098;-82
2022/05/05 04:26:45;;;;;;;50.28;19.85;;;;;;;10.26;75.19;95734.03;5006934;28;20101;-82
2022/05/05 04:29:11;;;;;;;53.63;20.50;;;;;;;9.23;74.73;95582.66;5022950;28;20609;-82
2022/05/05 04:31:37;;;;;;;61.47;20.05;;;;;;;9.25;75.03;95627.41;5014565;28;20902;-82
2022/05/05 04:34:04;;;;;;;50.10;21.35;;;;;;;8.55;76.36;95561.50;5022564;28;20083;-82
2022/05/05 04:36:35;;;;;;;55.33;21.77;;;;;;;9.66;76.42;95719.31;5002291;28;20030;-82
2022/05/05 04:39:10;;;;;;;;;;;;;;;9.91;76.49;95744.41;5036047;28;20123;-83
2022/05/05 04:41:35;;;;;;;57.13;20.90;;;;;;;9.65;75.75;95678.00;5012336;28;21944;-83
2022/05/05 04:44:01;;;;;;;57.40;22.38;;;;;;;7.85;75.54;95393.38;5002325;28;20037;-82
2022/05/05 04:46:32;;;;;;;56.78;23.23;;;;;;;7.58;74.71;95316.81;5022119;28;20107;-82
2022/05/05 04:48:58;;;;;;;53.13;23.98;;;;;;;8.55;74.95;95475.06;4998127;28;20474;-82
2022/05/05 04:51:24;;;;;;;54.63;25.05;;;;;;;8.38;74.87;95448.78;5015429;28;20041;-83
2022/05/05 04:53:50;;;;;;;52.42;22.60;;;;;;;9.90;75.20;95695.91;5000550;28;20033;-82
2022/05/05 04:56:15;;;;;;;58.03;22.63;;;;;;;10.60;75.05;95744.25;4997259;28;20037;-82
2022/05/05 04:58:41;;;;;;;51.25;24.60;;;;;;;10.63;74.52;95738.41;5016627;28;20566;-83
2022/05/05 05:01:06;;;;;;;57.95;25.75;;;;;;;9.65;74.29;95577.38;5013616;28;20099;-83
2022/05/05 05:03:39;;;;;;;51.53;24.25;;;;;;;9.75;74.69;95587.22;5009389;28;20079;-83
2022/05/05 05:06:09;;;;;;;84.30;25.63;;;;;;;10.57;75.16;95747.41;5016251;28;20038;-83
2022/05/05 05:08:35;;;;;;;75.22;27.08;;;;;;;9.65;74.30;95587.97;5016537;28;20045;-83
2022/05/05 05:11:00;;;;;;;73.55;26.48;;;;;;;10.23;75.25;95718.63;4998002;28;20110;-83
2022/05/05 05:13:26;;;;;;;67.45;27.60;;;;;;;10.25;74.50;95715.72;5009620;28;20526;-83
2022/05/05 05:15:52;;;;;;;68.97;28.50;;;;;;;10.00;75.63;95717.16;5000172;28;20103;-83
2022/05/05 05:18:17;;;;;;;75.80;28.73;;;;;;;9.45;75.62;95654.03;5019019;28;20114;-83
2022/05/05 05:20:46;;;;;;;69.80;29.27;;;;;;;9.98;76.71;95753.72;5021385;28;20050;-83
2022/05/05 05:23:12;;;;;;;72.75;29.40;;;;;;;8.91;76.87;95592.50;5002517;28;20033;-82
2022/05/05 05:25:38;;;;;;;76.65;28.55;;;;;;;9.97;76.79;95754.78;5021257;28;20095;-83
2022/05/05 05:28:03;;;;;;;63.00;27.23;;;;;;;9.92;76.23;95732.72;5003834;28;20043;-83
2022/05/05 05:30:29;;;;;;;70.10;28.45;;;;;;;9.95;76.50;95764.81;5020164;28;20057;-83
2022/05/05 05:32:54;;;;;;;68.93;29.15;;;;;;;9.76;77.00;95715.16;5001149;28;20033;-83
2022/05/05 05:35:20;;;;;;;67.38;28.83;;;;;;;9.41;76.44;95681.25;5016752;28;20025;-83
2022/05/05 05:37:45;;;;;;;63.97;28.83;;;;;;;10.30;76.60;95758.16;4996668;28;20539;-83
2022/05/05 05:40:11;;;;;;;65.35;28.05;;;;;;;9.51;76.23;95621.25;5015155;28;20506;-83
2022/05/05 05:42:36;;;;;;;175.45;30.13;;;;;;;10.00;75.64;95685.34;5017408;28;20085;-83
2022/05/05 05:45:02;;;;;;;130.63;29.80;;;;;;;10.52;75.29;95765.97;5020249;28;20044;-83
2022/05/05 05:47:28;;;;;;;58.63;28.00;;;;;;;9.88;74.95;95682.13;4995114;28;20055;-83
2022/05/05 05:49:54;;;;;;;147.27;32.53;;;;;;;10.04;76.50;95738.66;4998611;28;20300;-83
2022/05/05 05:52:20;;;;;;;59.67;28.02;;;;;;;10.13;75.61;95701.84;5002934;28;20037;-83
2022/05/05 05:54:45;;;;;;;59.97;29.55;;;;;;;9.12;76.68;95567.00;5007209;28;20581;-82
2022/05/05 05:57:11;;;;;;;67.50;29.52;;;;;;;10.64;75.97;95770.00;5010608;28;20415;-83
2022/05/05 05:59:36;;;;;;;88.93;29.52;;;;;;;9.63;75.25;95594.56;5019856;28;20117;-83
2022/05/05 06:04:46;;;;;;;72.60;32.38;;;;;;;9.53;74.91;95624.44;5023666;28;20131;-83
2022/05/05 06:07:11;;;;;;;65.90;32.85;;;;;;;9.57;75.45;95579.69;5023925;28;20049;-83
2022/05/05 06:09:37;;;;;;;78.72;34.85;;;;;;;8.22;74.23;95372.25;5018818;28;20053;-83
2022/05/05 06:12:03;;;;;;;72.93;33.65;;;;;;;10.41;74.29;95710.22;5024336;28;20281;-83
2022/05/05 06:14:30;;;;;;;71.78;33.17;;;;;;;10.56;73.75;95712.16;4996105;28;20528;-83
2022/05/05 06:16:55;;;;;;;77.00;35.25;;;;;;;9.33;73.59;95555.47;5021263;28;20033;-83
2022/05/05 06:19:21;;;;;;;88.35;37.17;;;;;;;10.71;76.16;95767.91;5020947;28;20041;-83
2022/05/05 06:21:47;;;;;;;66.00;35.45;;;;;;;10.54;74.47;95716.09;4999883;28;20032;-83
2022/05/05 06:24:12;;;;;;;75.63;36.67;;;;;;;10.43;74.80;95676.31;5003749;28;20547;-83
2022/05/05 06:26:38;;;;;;;75.43;36.25;;;;;;;10.79;75.27;95756.00;5015017;28;20036;-83
2022/05/05 06:29:03;;;;;;;106.47;44.95;;;;;;;10.23;75.78;95652.34;5014593;28;20103;-83
2022/05/05 06:31:31;;;;;;;83.93;35.95;;;;;;;10.75;74.26;95707.19;5015063;28;20488;-83
2022/05/05 06:34:10;;;;;;;83.85;38.15;;;;;;;11.07;73.03;95768.00;4995515;28;20075;-83
2022/05/05 06:36:36;;;;;;;85.75;39.92;;;;;;;10.27;74.45;95679.97;5031752;28;20029;-83
2022/05/05 06:39:02;;;;;;;81.93;39.83;;;;;;;10.93;74.16;95725.25;4996970;28;20159;-83
2022/05/05 06:41:28;;;;;;;83.70;39.72;;;;;;;10.65;75.21;95676.09;5013583;28;20141;-83
2022/05/05 06:43:54;;;;;;;82.05;39.35;;;;;;;11.38;74.61;95739.66;4995564;28;20107;-83
2022/05/05 06:46:20;;;;;;;94.30;41.35;;;;;;;11.47;74.02;95761.97;4995732;28;20064;-82
2022/05/05 06:48:46;;;;;;;83.03;41.38;;;;;;;11.15;73.19;95688.66;5011195;28;20419;-82
2022/05/05 06:51:11;;;;;;;81.13;38.10;;;;;;;10.78;73.33;95582.75;5017457;28;20038;-82
2022/05/05 06:53:37;;;;;;;81.40;41.83;;;;;;;11.75;73.61;95742.13;5017132;28;20623;-82
2022/05/05 06:56:03;;;;;;;89.65;42.75;;;;;;;11.84;73.16;95724.53;5015195;28;20066;-83
2022/05/05 06:58:29;;;;;;;80.47;40.30;;;;;;;12.29;72.42;95772.31;5016612;28;20049;-82
2022/05/05 07:03:38;;;;;;;84.22;41.05;;;;;;;11.53;71.23;95660.78;5012770;28;20060;-82
2022/05/05 07:06:05;;;;;;;80.00;40.72;;;;;;;12.03;70.78;95722.94;5012285;28;20034;-83
2022/05/05 07:10:52;;;;;;;83.25;42.60;;;;;;;11.92;70.60;95687.59;4998823;28;20045;-82
2022/05/05 07:11:19;;;;;;;82.88;41.63;;;;;;;11.69;70.16;95616.38;5011725;28;20038;-82
2022/05/05 07:13:45;;;;;;;76.20;40.65;;;;;;;12.86;69.71;95757.78;4997444;28;20040;-82
2022/05/05 07:16:11;;;;;;;82.25;42.63;;;;;;;12.92;70.05;95777.19;5016050;28;20040;-81
2022/05/05 07:18:37;;;;;;;79.65;42.42;;;;;;;12.97;70.31;95783.25;4996926;28;20034;-82
2022/05/05 07:21:03;;;;;;;78.55;41.15;;;;;;;13.01;68.65;95779.00;4997229;28;20047;-82
2022/05/05 07:23:28;;;;;;;92.13;42.00;;;;;;;12.64;69.05;95723.53;4987990;28;20033;-82
2022/05/05 07:25:54;;;;;;;83.40;44.47;;;;;;;13.11;69.18;95786.94;5011975;28;20863;-82
2022/05/05 07:28:19;;;;;;;86.57;43.55;;;;;;;13.35;68.06;95784.44;4987515;28;20244;-83
2022/05/05 07:30:45;;;;;;;79.63;42.28;;;;;;;12.74;68.68;95743.97;4992950;28;21532;-82
2022/05/05 07:33:10;;;;;;;87.45;42.00;;;;;;;12.25;69.70;95669.44;5006962;28;20661;-82
2022/05/05 07:35:38;;;;;;;77.38;40.83;;;;;;;13.21;67.95;95785.31;5006676;28;20030;-82
2022/05/05 07:38:04;;;;;;;80.35;39.35;;;;;;;12.33;68.36;95667.00;4993023;28;20021;-83
2022/05/05 07:40:29;;;;;;;71.53;37.75;;;;;;;12.36;67.88;95647.03;4996719;28;20052;-82
2022/05/05 07:42:55;;;;;;;67.32;39.55;;;;;;;12.53;68.77;95702.56;5012407;28;20777;-82
2022/05/05 07:45:21;;;;;;;74.97;39.35;;;;;;;12.58;68.93;95719.31;4993815;28;20088;-82
2022/05/05 07:47:47;;;;;;;74.95;39.50;;;;;;;12.85;69.36;95774.00;5004916;28;20616;-81
2022/05/05 07:50:12;;;;;;;65.63;37.03;;;;;;;12.87;69.05;95750.59;4992947;28;20236;-82
2022/05/05 07:52:38;;;;;;;63.67;37.97;;;;;;;12.66;69.30;95691.34;5008025;28;20037;-82
2022/05/05 07:55:04;;;;;;;62.75;36.00;;;;;;;12.52;69.70;95677.81;5004592;28;20856;-81
2022/05/05 07:57:30;;;;;;;62.25;36.10;;;;;;;12.36;69.51;95687.72;4984729;28;20076;-82
2022/05/05 07:59:56;;;;;;;59.97;34.13;;;;;;;12.21;68.72;95669.16;5011099;28;20112;-81
2022/05/05 08:02:22;;;;;;;63.15;36.42;;;;;;;12.43;68.07;95715.91;4988092;28;20041;-82
2022/05/05 08:04:47;;;;;;;55.58;32.88;;;;;;;11.70;68.64;95585.31;4983001;28;20436;-81
2022/05/05 08:07:13;;;;;;;57.10;32.85;;;;;;;12.86;68.34;95760.44;5008212;28;20563;-82
2022/05/05 08:09:39;;;;;;;59.60;35.22;;;;;;;12.88;68.46;95779.59;5005862;28;20059;-82
2022/05/05 08:12:05;;;;;;;61.30;34.03;;;;;;;12.14;67.97;95647.38;5005603;28;20033;-82
2022/05/05 08:14:32;;;;;;;61.22;36.75;;;;;;;12.24;69.26;95662.50;5012085;28;20033;-82
2022/05/05 08:16:58;;;;;;;54.95;34.10;;;;;;;12.61;68.23;95713.44;5012296;28;20476;-82
2022/05/05 08:19:23;;;;;;;50.03;31.90;;;;;;;12.74;69.10;95728.00;4988467;28;20044;-82
2022/05/05 08:21:50;;;;;;;56.78;31.95;;;;;;;13.14;67.82;95774.97;5011159;28;20053;-82
2022/05/05 08:29:45;;;;;;;49.33;27.80;;;;;;;13.20;66.31;95755.22;5008132;28;20108;-82
2022/05/05 08:32:11;;;;;;;45.22;28.10;;;;;;;13.07;66.44;95721.19;5006775;28;20034;-82
2022/05/05 08:34:37;;;;;;;46.83;27.83;;;;;;;13.53;66.37;95767.00;5009408;28;20033;-82
2022/05/05 08:37:02;;;;;;;46.88;26.27;;;;;;;12.84;65.61;95665.94;4982339;28;20021;-82
2022/05/05 08:39:28;;;;;;;47.72;27.30;;;;;;;13.12;66.16;95699.88;4999176;28;20072;-81
2022/05/05 08:41:55;;;;;;;43.10;26.20;;;;;;;13.46;66.17;95730.00;4982654;28;20468;-81
2022/05/05 08:44:20;;;;;;;43.08;25.77;;;;;;;12.71;65.42;95596.31;4993313;28;20553;-82
2022/05/05 08:46:50;;;;;;;45.28;27.10;;;;;;;13.30;66.40;95675.25;5008859;28;20029;-81
2022/05/05 08:49:21;;;;;;;45.33;24.50;;;;;;;13.77;66.35;95733.25;5018462;28;20116;-81
2022/05/05 08:51:49;;;;;;;42.17;25.25;;;;;;;13.21;66.33;95639.63;5020093;28;20136;-81
2022/05/05 08:54:16;;;;;;;48.47;24.83;;;;;;;13.62;67.64;95701.38;5009859;28;20350;-81
2022/05/05 08:56:48;;;;;;;38.78;23.95;;;;;;;13.30;66.66;95651.28;5013331;28;20033;-81
2022/05/05 08:59:14;;;;;;;36.22;21.30;;;;;;;13.59;67.40;95679.81;5012523;28;20253;-81
2022/05/05 09:01:40;;;;;;;40.00;21.92;;;;;;;13.39;68.80;95628.31;5018118;28;20061;-81
2022/05/05 09:04:06;;;;;;;32.65;20.88;;;;;;;13.61;68.82;95651.03;5014455;28;20044;-82
2022/05/05 09:06:52;;;;;;;35.20;22.75;;;;;;;13.62;68.42;95623.28;5014059;28;20211;-81
2022/05/05 09:09:26;;;;;;;39.72;22.45;;;;;;;14.63;67.97;95764.44;5023305;28;20084;-81
2022/05/05 09:12:12;;;;;;;36.45;19.77;;;;;;;14.73;66.79;95762.69;5025610;28;20103;-81
2022/05/05 09:14:46;;;;;;;46.17;22.35;;;;;;;14.42;67.45;95698.22;5016554;28;20116;-81
2022/05/05 09:17:14;;;;;;;32.85;19.33;;;;;;;14.68;64.68;95748.34;5013017;28;20531;-81
2022/05/05 09:19:43;;;;;;;35.40;19.75;;;;;;;14.82;63.72;95766.34;4998639;28;20037;-82
2022/05/05 09:22:09;;;;;;;33.65;20.98;;;;;;;14.62;63.87;95728.13;5002589;28;20034;-82
2022/05/05 09:24:35;;;;;;;34.08;20.00;;;;;;;14.23;64.94;95640.25;5014969;28;20045;-82
2022/05/05 09:27:16;;;;;;;37.08;20.10;;;;;;;15.05;64.60;95744.16;5018248;28;20032;-81
2022/05/05 09:29:54;;;;;;;36.72;18.95;;;;;;;15.02;64.80;95734.06;4999254;28;20654;-81
2022/05/05 09:32:19;;;;;;;33.15;19.52;;;;;;;14.53;64.43;95646.31;5004680;28;20229;-81
2022/05/05 09:34:45;;;;;;;30.30;17.40;;;;;;;14.51;63.91;95627.09;4996524;28;20093;-82
2022/05/05 09:37:21;;;;;;;35.90;18.42;;;;;;;15.40;65.27;95738.31;5010851;28;20083;-82
2022/05/05 09:39:46;;;;;;;27.00;16.52;;;;;;;15.25;64.66;95719.03;4995060;28;20471;-82
2022/05/05 09:42:34;;;;;;;24.15;15.63;;;;;;;14.80;64.22;95624.34;5005418;28;20037;-82
2022/05/05 09:45:16;;;;;;;25.60;15.48;;;;;;;14.98;65.02;95636.88;4999910;28;20141;-83
2022/05/05 09:47:45;;;;;;;31.88;14.98;;;;;;;15.95;62.67;95687.72;4992191;28;20029;-81
2022/05/05 09:50:15;;;;;;;23.98;12.88;;;;;;;16.64;57.96;95675.19;5013579;28;20037;-80
2022/05/05 09:58:17;;;;;;;16.13;10.60;;;;;;;20.31;50.40;95669.06;5015156;28;20107;-81
2022/05/05 10:00:48;;;;;;;15.68;10.02;;;;;;;21.46;45.62;95732.53;5014340;28;20034;-82
2022/05/05 10:06:52;;;;;;;14.25;8.20;;;;;;;23.49;40.22;95726.66;5016451;28;20107;-82
2022/05/05 10:09:18;;;;;;;15.68;6.68;;;;;;;23.83;37.86;95669.22;5008906;28;20130;-82
2022/05/05 10:11:43;;;;;;;10.48;6.47;;;;;;;24.51;35.93;95641.16;5011630;28;20227;-82
2022/05/05 10:14:18;;;;;;;9.90;6.50;;;;;;;25.51;35.55;95707.44;4994772;28;20124;-82
2022/05/05 10:16:43;;;;;;;13.48;6.22;;;;;;;25.44;34.09;95614.97;4982821;28;20034;-82
2022/05/05 10:19:45;;;;;;;10.85;6.13;;;;;;;26.52;33.61;95714.47;4997692;28;20484;-82
2022/05/05 10:22:25;;;;;;;13.07;6.40;;;;;;;26.11;33.09;95594.50;4964731;28;20136;-82
2022/05/05 10:25:13;;;;;;;15.48;6.35;;;;;;;27.04;33.48;95707.56;4999009;28;20150;-82
2022/05/05 10:27:45;;;;;;;9.88;5.60;;;;;;;27.14;33.13;95704.22;4996475;28;20037;-81
2022/05/05 10:30:34;;;;;;;11.40;5.00;;;;;;;26.89;31.83;95649.38;4977675;28;20145;-81
2022/05/05 10:33:01;;;;;;;11.18;4.95;;;;;;;26.78;32.23;95629.38;4976860;28;20034;-82
2022/05/05 10:35:36;;;;;;;12.30;4.85;;;;;;;26.76;33.03;95664.34;5007849;28;20033;-80
2022/05/05 10:38:02;;;;;;;8.13;3.60;;;;;;;26.02;31.46;95574.94;4982390;28;20821;-81
2022/05/05 10:40:43;;;;;;;11.27;3.72;;;;;;;26.88;30.71;95716.63;4984795;28;20050;-81
2022/05/05 10:43:09;;;;;;;10.65;3.75;;;;;;;25.49;33.11;95624.75;4991347;28;20144;-82
2022/05/05 10:45:34;;;;;;;9.18;3.78;;;;;;;26.10;32.16;95641.84;4996499;28;20048;-81
2022/05/05 10:48:06;;;;;;;2.92;2.10;;;;;;;26.03;27.71;95714.31;4993263;28;20038;-81
2022/05/05 10:51:06;;;;;;;5.65;3.10;;;;;;;25.87;28.86;95659.25;4978242;28;20042;-81
2022/05/05 10:53:33;;;;;;;6.60;2.53;;;;;;;25.97;28.07;95596.19;4994602;28;20128;-80
2022/05/05 10:56:01;;;;;;;4.35;2.03;;;;;;;26.45;28.22;95704.28;4998653;28;20547;-82
2022/05/05 10:59:03;;;;;;;3.95;2.08;;;;;;;27.03;27.24;95719.59;5001927;28;20529;-81
2022/05/05 11:01:49;;;;;;;7.10;2.25;;;;;;;27.28;28.12;95712.59;4989152;28;20095;-82
2022/05/05 11:04:15;;;;;;;5.75;2.17;;;;;;;27.57;26.14;95711.88;4980146;28;20448;-81
2022/05/05 11:06:42;;;;;;;3.55;2.13;;;;;;;27.11;25.26;95610.47;4996156;28;20042;-82
2022/05/05 11:09:08;;;;;;;9.75;1.90;;;;;;;27.35;26.43;95707.25;4974803;28;20052;-82
2022/05/05 11:11:40;;;;;;;7.85;2.95;;;;;;;26.63;26.50;95557.66;4976486;28;20061;-82
2022/05/05 11:22:58;;;;;;;5.50;2.75;;;;;;;24.91;31.88;95673.53;5001779;28;20610;-86
2022/05/05 11:25:24;;;;;;;8.15;2.30;;;;;;;24.46;31.56;95625.16;4986873;28;20065;-85
2022/05/05 11:27:56;;;;;;;6.93;2.42;;;;;;;24.50;31.54;95650.44;4998708;28;20072;-84
2022/05/05 11:30:22;;;;;;;5.47;1.85;;;;;;;22.98;31.93;95428.72;4999509;28;20057;-85
2022/05/05 11:32:48;;;;;;;6.95;2.38;;;;;;;23.95;30.30;95564.66;5009738;28;20033;-85
2022/05/05 11:35:19;;;;;;;4.07;1.90;;;;;;;24.53;29.96;95709.38;5002187;28;20120;-85
2022/05/05 11:37:45;;;;;;;4.25;2.30;;;;;;;24.36;29.81;95688.81;4998168;28;20528;-85
2022/05/05 11:40:12;;;;;;;4.80;2.58;;;;;;;24.01;32.11;95625.56;5001176;28;20128;-86
2022/05/05 11:44:14;;;;;;;6.53;2.47;;;;;;;22.14;32.69;95449.47;5016759;28;20042;-86
2022/05/05 11:45:28;;;;;;;6.22;2.30;;;;;;;23.42;31.58;95594.56;5017899;28;20072;-86
2022/05/05 11:47:54;;;;;;;3.08;1.95;;;;;;;23.69;32.43;95641.75;5023616;28;20069;-86
2022/05/05 11:50:20;;;;;;;2.40;1.92;;;;;;;23.40;30.19;95625.84;5021937;28;20026;-86
2022/05/05 11:52:46;;;;;;;4.95;1.90;;;;;;;23.99;30.28;95706.41;5000348;28;20041;-85
2022/05/05 11:55:13;;;;;;;3.92;1.88;;;;;;;24.28;29.52;95702.53;5002581;28;20036;-85
2022/05/05 11:57:42;;;;;;;4.72;1.77;;;;;;;24.03;28.52;95664.72;4998989;28;20137;-86
2022/05/05 12:02:55;;;;;;;5.28;1.85;;;;;;;24.62;26.97;95693.75;5018183;28;20577;-85
2022/05/05 12:05:22;;;;;;;3.35;1.58;;;;;;;23.90;26.81;95522.34;5004730;28;20034;-86
2022/05/05 12:07:50;;;;;;;3.42;1.90;;;;;;;25.63;27.28;95710.03;5023172;28;20672;-86